sensor_id;sensor_type;location;lat;lon;timestamp;P1;durP1;ratioP1;P2;durP2;ratioP2
5811;SDS011;2932;52.400;9.558;2023-04-24T00:00:30;1.10;;;0.40;;
5811;SDS011;2932;52.400;9.558;2023-04-24T00:02:56;0.60;;;0.53;;
5811;SDS011;2932;52.400;9.558;2023-04-24T00:05:23;0.50;;;0.50;;
5811;SDS011;2932;52.400;9.558;2023-04-24T00:07:49;1.83;;;0.70;;
5811;SDS011;2932;52.400;9.558;2023-04-24T00:10:18;0.90;;;0.50;;
5811;SDS011;2932;52.400;9.558;2023-04-24T00:12:43;0.60;;;0.60;;
5811;SDS011;2932;52.400;9.558;2023-04-24T00:15:09;0.67;;;0.60;;
5811;SDS011;2932;52.400;9.558;2023-04-24T00:17:35;0.47;;;0.47;;
5811;SDS011;2932;52.400;9.558;2023-04-24T00:20:00;1.00;;;0.60;;
5811;SDS011;2932;52.400;9.558;2023-04-24T00:22:29;1.23;;;0.60;;
5811;SDS011;2932;52.400;9.558;2023-04-24T00:24:55;0.60;;;0.60;;
5811;SDS011;2932;52.400;9.558;2023-04-24T00:27:21;0.90;;;0.50;;
5811;SDS011;2932;52.400;9.558;2023-04-24T00:29:47;1.03;;;0.50;;
5811;SDS011;2932;52.400;9.558;2023-04-24T00:32:13;1.57;;;0.60;;
5811;SDS011;2932;52.400;9.558;2023-04-24T00:34:39;0.60;;;0.60;;
5811;SDS011;2932;52.400;9.558;2023-04-24T00:37:04;1.17;;;0.50;;
5811;SDS011;2932;52.400;9.558;2023-04-24T00:39:30;0.50;;;0.50;;
5811;SDS011;2932;52.400;9.558;2023-04-24T00:41:55;0.90;;;0.53;;
5811;SDS011;2932;52.400;9.558;2023-04-24T00:44:21;0.77;;;0.50;;
5811;SDS011;2932;52.400;9.558;2023-04-24T00:46:47;0.90;;;0.90;;
5811;SDS011;2932;52.400;9.558;2023-04-24T00:49:17;0.73;;;0.57;;
5811;SDS011;2932;52.400;9.558;2023-04-24T00:51:43;1.07;;;0.47;;
5811;SDS011;2932;52.400;9.558;2023-04-24T00:54:10;0.50;;;0.50;;
5811;SDS011;2932;52.400;9.558;2023-04-24T00:56:36;0.50;;;0.50;;
5811;SDS011;2932;52.400;9.558;2023-04-24T00:59:01;0.60;;;0.50;;
5811;SDS011;2932;52.400;9.558;2023-04-24T01:01:27;0.87;;;0.50;;
5811;SDS011;2932;52.400;9.558;2023-04-24T01:03:52;1.43;;;0.60;;
5811;SDS011;2932;52.400;9.558;2023-04-24T01:06:18;0.87;;;0.70;;
5811;SDS011;2932;52.400;9.558;2023-04-24T01:08:45;1.33;;;0.60;;
5811;SDS011;2932;52.400;9.558;2023-04-24T01:11:12;0.60;;;0.50;;
5811;SDS011;2932;52.400;9.558;2023-04-24T01:13:38;0.60;;;0.60;;
5811;SDS011;2932;52.400;9.558;2023-04-24T01:16:04;0.70;;;0.70;;
5811;SDS011;2932;52.400;9.558;2023-04-24T01:18:30;1.47;;;0.60;;
5811;SDS011;2932;52.400;9.558;2023-04-24T01:20:56;0.73;;;0.50;;
5811;SDS011;2932;52.400;9.558;2023-04-24T01:23:23;0.60;;;0.60;;
5811;SDS011;2932;52.400;9.558;2023-04-24T01:25:49;1.80;;;0.70;;
5811;SDS011;2932;52.400;9.558;2023-04-24T01:28:15;1.07;;;0.57;;
5811;SDS011;2932;52.400;9.558;2023-04-24T01:30:41;2.17;;;0.67;;
5811;SDS011;2932;52.400;9.558;2023-04-24T01:33:06;1.47;;;0.57;;
5811;SDS011;2932;52.400;9.558;2023-04-24T01:35:32;0.93;;;0.70;;
5811;SDS011;2932;52.400;9.558;2023-04-24T01:37:57;1.20;;;0.53;;
5811;SDS011;2932;52.400;9.558;2023-04-24T01:40:23;0.77;;;0.53;;
5811;SDS011;2932;52.400;9.558;2023-04-24T01:42:48;0.90;;;0.60;;
5811;SDS011;2932;52.400;9.558;2023-04-24T01:45:13;0.60;;;0.57;;
5811;SDS011;2932;52.400;9.558;2023-04-24T01:47:39;2.33;;;0.60;;
5811;SDS011;2932;52.400;9.558;2023-04-24T01:50:05;1.63;;;0.70;;
5811;SDS011;2932;52.400;9.558;2023-04-24T01:52:30;1.13;;;0.60;;
5811;SDS011;2932;52.400;9.558;2023-04-24T01:55:01;0.47;;;0.47;;
5811;SDS011;2932;52.400;9.558;2023-04-24T01:57:30;0.83;;;0.53;;
5811;SDS011;2932;52.400;9.558;2023-04-24T01:59:56;0.50;;;0.50;;
5811;SDS011;2932;52.400;9.558;2023-04-24T02:02:21;0.50;;;0.50;;
5811;SDS011;2932;52.400;9.558;2023-04-24T02:04:49;0.50;;;0.50;;
5811;SDS011;2932;52.400;9.558;2023-04-24T02:07:14;1.07;;;0.70;;
5811;SDS011;2932;52.400;9.558;2023-04-24T02:09:40;0.53;;;0.53;;
5811;SDS011;2932;52.400;9.558;2023-04-24T02:12:05;0.73;;;0.70;;
5811;SDS011;2932;52.400;9.558;2023-04-24T02:14:30;0.40;;;0.40;;
5811;SDS011;2932;52.400;9.558;2023-04-24T02:16:56;1.20;;;0.73;;
5811;SDS011;2932;52.400;9.558;2023-04-24T02:19:21;0.70;;;0.70;;
5811;SDS011;2932;52.400;9.558;2023-04-24T02:21:47;0.60;;;0.50;;
5811;SDS011;2932;52.400;9.558;2023-04-24T02:24:12;0.47;;;0.47;;
5811;SDS011;2932;52.400;9.558;2023-04-24T02:26:37;1.20;;;0.60;;
5811;SDS011;2932;52.400;9.558;2023-04-24T02:29:02;0.87;;;0.60;;
5811;SDS011;2932;52.400;9.558;2023-04-24T02:31:28;0.60;;;0.60;;
5811;SDS011;2932;52.400;9.558;2023-04-24T02:33:53;1.23;;;0.40;;
5811;SDS011;2932;52.400;9.558;2023-04-24T02:36:18;1.40;;;0.60;;
5811;SDS011;2932;52.400;9.558;2023-04-24T02:38:44;0.30;;;0.30;;
5811;SDS011;2932;52.400;9.558;2023-04-24T02:41:09;0.50;;;0.50;;
5811;SDS011;2932;52.400;9.558;2023-04-24T02:43:35;0.60;;;0.60;;
5811;SDS011;2932;52.400;9.558;2023-04-24T02:46:00;0.40;;;0.40;;
5811;SDS011;2932;52.400;9.558;2023-04-24T02:48:25;0.60;;;0.60;;
5811;SDS011;2932;52.400;9.558;2023-04-24T02:50:50;0.33;;;0.33;;
5811;SDS011;2932;52.400;9.558;2023-04-24T02:53:16;0.40;;;0.40;;
5811;SDS011;2932;52.400;9.558;2023-04-24T02:55:42;0.63;;;0.50;;
5811;SDS011;2932;52.400;9.558;2023-04-24T02:58:07;0.50;;;0.40;;
5811;SDS011;2932;52.400;9.558;2023-04-24T03:00:32;0.40;;;0.40;;
5811;SDS011;2932;52.400;9.558;2023-04-24T03:02:58;1.30;;;0.60;;
5811;SDS011;2932;52.400;9.558;2023-04-24T03:05:23;0.43;;;0.40;;
5811;SDS011;2932;52.400;9.558;2023-04-24T03:07:48;1.50;;;0.50;;
5811;SDS011;2932;52.400;9.558;2023-04-24T03:10:14;0.40;;;0.40;;
5811;SDS011;2932;52.400;9.558;2023-04-24T03:12:40;0.60;;;0.60;;
5811;SDS011;2932;52.400;9.558;2023-04-24T03:15:05;1.13;;;0.60;;
5811;SDS011;2932;52.400;9.558;2023-04-24T03:17:31;0.73;;;0.50;;
5811;SDS011;2932;52.400;9.558;2023-04-24T03:19:56;0.67;;;0.47;;
5811;SDS011;2932;52.400;9.558;2023-04-24T03:22:22;1.83;;;0.50;;
5811;SDS011;2932;52.400;9.558;2023-04-24T03:24:47;0.40;;;0.40;;
5811;SDS011;2932;52.400;9.558;2023-04-24T03:27:12;0.47;;;0.40;;
5811;SDS011;2932;52.400;9.558;2023-04-24T03:29:38;0.37;;;0.37;;
5811;SDS011;2932;52.400;9.558;2023-04-24T03:32:03;0.97;;;0.40;;
5811;SDS011;2932;52.400;9.558;2023-04-24T03:34:28;1.33;;;0.40;;
5811;SDS011;2932;52.400;9.558;2023-04-24T03:36:54;0.90;;;0.57;;
5811;SDS011;2932;52.400;9.558;2023-04-24T03:39:19;0.87;;;0.47;;
5811;SDS011;2932;52.400;9.558;2023-04-24T03:41:44;0.63;;;0.43;;
5811;SDS011;2932;52.400;9.558;2023-04-24T03:44:10;1.00;;;0.53;;
5811;SDS011;2932;52.400;9.558;2023-04-24T03:46:35;1.43;;;0.57;;
5811;SDS011;2932;52.400;9.558;2023-04-24T03:49:00;0.40;;;0.40;;
5811;SDS011;2932;52.400;9.558;2023-04-24T03:51:26;1.10;;;0.50;;
5811;SDS011;2932;52.400;9.558;2023-04-24T03:53:52;0.90;;;0.83;;
5811;SDS011;2932;52.400;9.558;2023-04-24T03:56:18;0.67;;;0.53;;
5811;SDS011;2932;52.400;9.558;2023-04-24T03:58:43;0.60;;;0.50;;
5811;SDS011;2932;52.400;9.558;2023-04-24T04:01:09;0.40;;;0.40;;
5811;SDS011;2932;52.400;9.558;2023-04-24T04:03:35;0.90;;;0.57;;
5811;SDS011;2932;52.400;9.558;2023-04-24T04:06:00;1.03;;;0.30;;
5811;SDS011;2932;52.400;9.558;2023-04-24T04:08:26;1.57;;;0.50;;
5811;SDS011;2932;52.400;9.558;2023-04-24T04:10:51;0.40;;;0.40;;
5811;SDS011;2932;52.400;9.558;2023-04-24T04:13:16;1.40;;;0.53;;
5811;SDS011;2932;52.400;9.558;2023-04-24T04:15:42;1.63;;;0.70;;
5811;SDS011;2932;52.400;9.558;2023-04-24T04:18:07;0.60;;;0.60;;
5811;SDS011;2932;52.400;9.558;2023-04-24T04:20:33;0.90;;;0.70;;
5811;SDS011;2932;52.400;9.558;2023-04-24T04:22:58;1.27;;;0.60;;
5811;SDS011;2932;52.400;9.558;2023-04-24T04:25:24;0.50;;;0.50;;
5811;SDS011;2932;52.400;9.558;2023-04-24T04:27:49;0.67;;;0.67;;
5811;SDS011;2932;52.400;9.558;2023-04-24T04:30:16;0.70;;;0.70;;
5811;SDS011;2932;52.400;9.558;2023-04-24T04:32:41;1.30;;;0.47;;
5811;SDS011;2932;52.400;9.558;2023-04-24T04:35:07;1.00;;;0.50;;
5811;SDS011;2932;52.400;9.558;2023-04-24T04:37:32;1.13;;;0.60;;
5811;SDS011;2932;52.400;9.558;2023-04-24T04:39:58;0.60;;;0.60;;
5811;SDS011;2932;52.400;9.558;2023-04-24T04:42:24;2.03;;;0.73;;
5811;SDS011;2932;52.400;9.558;2023-04-24T04:44:50;0.67;;;0.67;;
5811;SDS011;2932;52.400;9.558;2023-04-24T04:47:16;0.60;;;0.50;;
5811;SDS011;2932;52.400;9.558;2023-04-24T04:49:43;1.30;;;0.77;;
5811;SDS011;2932;52.400;9.558;2023-04-24T04:52:08;1.57;;;0.70;;
5811;SDS011;2932;52.400;9.558;2023-04-24T04:54:34;1.63;;;0.60;;
5811;SDS011;2932;52.400;9.558;2023-04-24T04:57:00;0.77;;;0.77;;
5811;SDS011;2932;52.400;9.558;2023-04-24T04:59:25;0.60;;;0.60;;
5811;SDS011;2932;52.400;9.558;2023-04-24T05:01:51;0.97;;;0.70;;
5811;SDS011;2932;52.400;9.558;2023-04-24T05:04:17;0.60;;;0.60;;
5811;SDS011;2932;52.400;9.558;2023-04-24T05:06:42;2.43;;;0.80;;
5811;SDS011;2932;52.400;9.558;2023-04-24T05:09:08;0.60;;;0.50;;
5811;SDS011;2932;52.400;9.558;2023-04-24T05:11:33;0.80;;;0.60;;
5811;SDS011;2932;52.400;9.558;2023-04-24T05:13:58;0.50;;;0.50;;
5811;SDS011;2932;52.400;9.558;2023-04-24T05:16:24;0.90;;;0.60;;
5811;SDS011;2932;52.400;9.558;2023-04-24T05:18:49;0.53;;;0.53;;
5811;SDS011;2932;52.400;9.558;2023-04-24T05:21:15;1.53;;;0.40;;
5811;SDS011;2932;52.400;9.558;2023-04-24T05:23:40;0.50;;;0.50;;
5811;SDS011;2932;52.400;9.558;2023-04-24T05:26:05;0.90;;;0.60;;
5811;SDS011;2932;52.400;9.558;2023-04-24T05:28:31;0.57;;;0.53;;
5811;SDS011;2932;52.400;9.558;2023-04-24T05:30:56;0.57;;;0.57;;
5811;SDS011;2932;52.400;9.558;2023-04-24T05:33:21;0.77;;;0.57;;
5811;SDS011;2932;52.400;9.558;2023-04-24T05:35:47;0.60;;;0.60;;
5811;SDS011;2932;52.400;9.558;2023-04-24T05:38:13;0.40;;;0.40;;
5811;SDS011;2932;52.400;9.558;2023-04-24T05:40:39;0.80;;;0.70;;
5811;SDS011;2932;52.400;9.558;2023-04-24T05:43:04;0.53;;;0.53;;
5811;SDS011;2932;52.400;9.558;2023-04-24T05:45:30;0.80;;;0.80;;
5811;SDS011;2932;52.400;9.558;2023-04-24T05:47:55;1.03;;;0.50;;
5811;SDS011;2932;52.400;9.558;2023-04-24T05:50:21;1.80;;;0.70;;
5811;SDS011;2932;52.400;9.558;2023-04-24T05:52:46;0.70;;;0.70;;
5811;SDS011;2932;52.400;9.558;2023-04-24T05:55:11;2.33;;;0.70;;
5811;SDS011;2932;52.400;9.558;2023-04-24T05:57:37;0.63;;;0.63;;
5811;SDS011;2932;52.400;9.558;2023-04-24T06:00:02;0.80;;;0.80;;
5811;SDS011;2932;52.400;9.558;2023-04-24T06:02:29;0.67;;;0.60;;
5811;SDS011;2932;52.400;9.558;2023-04-24T06:04:57;0.73;;;0.73;;
5811;SDS011;2932;52.400;9.558;2023-04-24T06:07:24;0.90;;;0.60;;
5811;SDS011;2932;52.400;9.558;2023-04-24T06:09:51;1.27;;;0.80;;
5811;SDS011;2932;52.400;9.558;2023-04-24T06:12:17;3.33;;;0.70;;
5811;SDS011;2932;52.400;9.558;2023-04-24T06:14:42;1.53;;;1.00;;
5811;SDS011;2932;52.400;9.558;2023-04-24T06:17:07;1.17;;;0.97;;
5811;SDS011;2932;52.400;9.558;2023-04-24T06:19:33;1.07;;;1.00;;
5811;SDS011;2932;52.400;9.558;2023-04-24T06:21:58;1.40;;;1.07;;
5811;SDS011;2932;52.400;9.558;2023-04-24T06:24:27;1.47;;;1.37;;
5811;SDS011;2932;52.400;9.558;2023-04-24T06:26:52;1.47;;;1.37;;
5811;SDS011;2932;52.400;9.558;2023-04-24T06:29:18;3.80;;;1.40;;
5811;SDS011;2932;52.400;9.558;2023-04-24T06:31:43;1.70;;;1.60;;
5811;SDS011;2932;52.400;9.558;2023-04-24T06:34:08;1.90;;;1.63;;
5811;SDS011;2932;52.400;9.558;2023-04-24T06:36:34;1.93;;;1.70;;
5811;SDS011;2932;52.400;9.558;2023-04-24T06:39:00;2.10;;;1.70;;
5811;SDS011;2932;52.400;9.558;2023-04-24T06:41:26;2.37;;;1.50;;
5811;SDS011;2932;52.400;9.558;2023-04-24T06:43:53;2.10;;;1.90;;
5811;SDS011;2932;52.400;9.558;2023-04-24T06:46:19;2.53;;;1.67;;
5811;SDS011;2932;52.400;9.558;2023-04-24T06:48:50;2.47;;;2.27;;
5811;SDS011;2932;52.400;9.558;2023-04-24T06:51:15;2.87;;;2.63;;
5811;SDS011;2932;52.400;9.558;2023-04-24T06:53:42;3.20;;;2.90;;
5811;SDS011;2932;52.400;9.558;2023-04-24T06:56:07;2.87;;;2.67;;
5811;SDS011;2932;52.400;9.558;2023-04-24T06:58:33;5.43;;;3.47;;
5811;SDS011;2932;52.400;9.558;2023-04-24T07:00:58;3.90;;;3.30;;
5811;SDS011;2932;52.400;9.558;2023-04-24T07:03:23;3.40;;;3.10;;
5811;SDS011;2932;52.400;9.558;2023-04-24T07:05:49;4.47;;;3.67;;
5811;SDS011;2932;52.400;9.558;2023-04-24T07:08:14;3.70;;;3.30;;
5811;SDS011;2932;52.400;9.558;2023-04-24T07:10:42;4.40;;;3.50;;
5811;SDS011;2932;52.400;9.558;2023-04-24T07:13:07;3.87;;;3.13;;
5811;SDS011;2932;52.400;9.558;2023-04-24T07:15:33;4.73;;;3.97;;
5811;SDS011;2932;52.400;9.558;2023-04-24T07:17:59;4.47;;;3.33;;
5811;SDS011;2932;52.400;9.558;2023-04-24T07:20:24;3.50;;;3.20;;
5811;SDS011;2932;52.400;9.558;2023-04-24T07:22:50;4.43;;;3.60;;
5811;SDS011;2932;52.400;9.558;2023-04-24T07:25:16;4.63;;;3.53;;
5811;SDS011;2932;52.400;9.558;2023-04-24T07:27:42;5.00;;;4.00;;
5811;SDS011;2932;52.400;9.558;2023-04-24T07:30:07;4.07;;;3.67;;
5811;SDS011;2932;52.400;9.558;2023-04-24T07:32:33;6.47;;;4.03;;
5811;SDS011;2932;52.400;9.558;2023-04-24T07:34:58;7.27;;;4.37;;
5811;SDS011;2932;52.400;9.558;2023-04-24T07:37:23;5.40;;;4.17;;
5811;SDS011;2932;52.400;9.558;2023-04-24T07:39:49;7.00;;;4.40;;
5811;SDS011;2932;52.400;9.558;2023-04-24T07:42:14;7.30;;;4.70;;
5811;SDS011;2932;52.400;9.558;2023-04-24T07:44:40;7.30;;;4.20;;
5811;SDS011;2932;52.400;9.558;2023-04-24T07:47:05;8.20;;;4.33;;
5811;SDS011;2932;52.400;9.558;2023-04-24T07:49:30;6.30;;;5.17;;
5811;SDS011;2932;52.400;9.558;2023-04-24T07:51:56;3.93;;;3.53;;
5811;SDS011;2932;52.400;9.558;2023-04-24T07:54:21;5.67;;;5.17;;
5811;SDS011;2932;52.400;9.558;2023-04-24T07:56:46;6.27;;;4.73;;
5811;SDS011;2932;52.400;9.558;2023-04-24T07:59:12;5.30;;;4.50;;
5811;SDS011;2932;52.400;9.558;2023-04-24T08:01:37;6.77;;;4.87;;
5811;SDS011;2932;52.400;9.558;2023-04-24T08:04:03;6.23;;;5.20;;
5811;SDS011;2932;52.400;9.558;2023-04-24T08:06:28;7.13;;;5.20;;
5811;SDS011;2932;52.400;9.558;2023-04-24T08:08:55;7.63;;;5.50;;
5811;SDS011;2932;52.400;9.558;2023-04-24T08:11:21;7.27;;;5.27;;
5811;SDS011;2932;52.400;9.558;2023-04-24T08:13:47;8.37;;;5.63;;
5811;SDS011;2932;52.400;9.558;2023-04-24T08:16:12;5.23;;;4.63;;
5811;SDS011;2932;52.400;9.558;2023-04-24T08:18:37;6.47;;;5.17;;
5811;SDS011;2932;52.400;9.558;2023-04-24T08:21:03;8.77;;;5.73;;
5811;SDS011;2932;52.400;9.558;2023-04-24T08:23:28;5.97;;;5.37;;
5811;SDS011;2932;52.400;9.558;2023-04-24T08:25:54;8.80;;;6.70;;
5811;SDS011;2932;52.400;9.558;2023-04-24T08:28:20;7.30;;;5.53;;
5811;SDS011;2932;52.400;9.558;2023-04-24T08:30:45;8.30;;;6.23;;
5811;SDS011;2932;52.400;9.558;2023-04-24T08:33:19;7.33;;;5.13;;
5811;SDS011;2932;52.400;9.558;2023-04-24T08:35:47;5.40;;;4.53;;
5811;SDS011;2932;52.400;9.558;2023-04-24T08:38:12;7.10;;;5.40;;
5811;SDS011;2932;52.400;9.558;2023-04-24T08:40:38;6.83;;;5.70;;
5811;SDS011;2932;52.400;9.558;2023-04-24T08:43:04;6.30;;;5.70;;
5811;SDS011;2932;52.400;9.558;2023-04-24T08:45:30;6.73;;;5.47;;
5811;SDS011;2932;52.400;9.558;2023-04-24T08:47:55;5.77;;;5.03;;
5811;SDS011;2932;52.400;9.558;2023-04-24T08:50:23;6.77;;;5.13;;
5811;SDS011;2932;52.400;9.558;2023-04-24T08:52:49;7.10;;;4.90;;
5811;SDS011;2932;52.400;9.558;2023-04-24T08:55:16;5.23;;;4.73;;
5811;SDS011;2932;52.400;9.558;2023-04-24T08:57:45;5.93;;;4.13;;
5811;SDS011;2932;52.400;9.558;2023-04-24T09:00:15;5.30;;;4.77;;
5811;SDS011;2932;52.400;9.558;2023-04-24T09:02:41;4.80;;;4.30;;
5811;SDS011;2932;52.400;9.558;2023-04-24T09:05:10;5.70;;;4.00;;
5811;SDS011;2932;52.400;9.558;2023-04-24T09:07:38;5.93;;;4.30;;
5811;SDS011;2932;52.400;9.558;2023-04-24T09:10:07;5.27;;;4.33;;
5811;SDS011;2932;52.400;9.558;2023-04-24T09:12:33;4.60;;;4.20;;
5811;SDS011;2932;52.400;9.558;2023-04-24T09:14:59;4.67;;;3.50;;
5811;SDS011;2932;52.400;9.558;2023-04-24T09:17:25;5.03;;;4.07;;
5811;SDS011;2932;52.400;9.558;2023-04-24T09:19:52;4.80;;;3.77;;
5811;SDS011;2932;52.400;9.558;2023-04-24T09:22:17;4.57;;;3.67;;
5811;SDS011;2932;52.400;9.558;2023-04-24T09:24:42;3.70;;;3.30;;
5811;SDS011;2932;52.400;9.558;2023-04-24T09:27:10;4.93;;;4.00;;
5811;SDS011;2932;52.400;9.558;2023-04-24T09:29:37;6.13;;;3.80;;
5811;SDS011;2932;52.400;9.558;2023-04-24T09:32:21;4.10;;;3.70;;
5811;SDS011;2932;52.400;9.558;2023-04-24T09:34:47;5.00;;;3.33;;
5811;SDS011;2932;52.400;9.558;2023-04-24T09:37:28;3.87;;;3.10;;
5811;SDS011;2932;52.400;9.558;2023-04-24T09:40:16;3.17;;;2.87;;
5811;SDS011;2932;52.400;9.558;2023-04-24T09:42:45;3.87;;;2.87;;
5811;SDS011;2932;52.400;9.558;2023-04-24T09:45:11;4.03;;;2.63;;
5811;SDS011;2932;52.400;9.558;2023-04-24T09:47:40;3.93;;;2.53;;
5811;SDS011;2932;52.400;9.558;2023-04-24T09:50:13;4.20;;;3.17;;
5811;SDS011;2932;52.400;9.558;2023-04-24T09:52:44;3.27;;;2.97;;
5811;SDS011;2932;52.400;9.558;2023-04-24T09:55:15;3.53;;;3.23;;
5811;SDS011;2932;52.400;9.558;2023-04-24T09:57:49;3.67;;;2.83;;
5811;SDS011;2932;52.400;9.558;2023-04-24T10:00:21;4.07;;;3.10;;
5811;SDS011;2932;52.400;9.558;2023-04-24T10:03:01;3.23;;;2.73;;
5811;SDS011;2932;52.400;9.558;2023-04-24T10:05:28;2.90;;;2.70;;
5811;SDS011;2932;52.400;9.558;2023-04-24T10:08:06;4.67;;;2.87;;
5811;SDS011;2932;52.400;9.558;2023-04-24T10:10:34;4.67;;;3.00;;
5811;SDS011;2932;52.400;9.558;2023-04-24T10:13:10;3.60;;;3.17;;
5811;SDS011;2932;52.400;9.558;2023-04-24T10:15:37;2.77;;;2.57;;
5811;SDS011;2932;52.400;9.558;2023-04-24T10:18:04;2.80;;;2.50;;
5811;SDS011;2932;52.400;9.558;2023-04-24T10:20:31;3.37;;;2.33;;
5811;SDS011;2932;52.400;9.558;2023-04-24T10:22:58;2.90;;;2.57;;
5811;SDS011;2932;52.400;9.558;2023-04-24T10:25:25;2.40;;;2.20;;
5811;SDS011;2932;52.400;9.558;2023-04-24T10:27:56;2.30;;;2.10;;
5811;SDS011;2932;52.400;9.558;2023-04-24T10:30:24;2.63;;;1.93;;
5811;SDS011;2932;52.400;9.558;2023-04-24T10:32:51;2.30;;;2.00;;
5811;SDS011;2932;52.400;9.558;2023-04-24T10:35:16;1.87;;;1.73;;
5811;SDS011;2932;52.400;9.558;2023-04-24T10:37:46;2.60;;;1.47;;
5811;SDS011;2932;52.400;9.558;2023-04-24T10:40:18;3.50;;;1.60;;
5811;SDS011;2932;52.400;9.558;2023-04-24T10:42:51;2.20;;;1.83;;
5811;SDS011;2932;52.400;9.558;2023-04-24T10:45:21;4.83;;;1.80;;
5811;SDS011;2932;52.400;9.558;2023-04-24T10:50:19;2.00;;;1.80;;
5811;SDS011;2932;52.400;9.558;2023-04-24T10:52:47;2.30;;;1.50;;
5811;SDS011;2932;52.400;9.558;2023-04-24T10:55:16;1.70;;;1.53;;
5811;SDS011;2932;52.400;9.558;2023-04-24T10:58:05;1.60;;;1.50;;
5811;SDS011;2932;52.400;9.558;2023-04-24T11:00:30;2.00;;;1.70;;
5811;SDS011;2932;52.400;9.558;2023-04-24T11:02:56;1.70;;;1.60;;
5811;SDS011;2932;52.400;9.558;2023-04-24T11:05:22;1.50;;;1.40;;
5811;SDS011;2932;52.400;9.558;2023-04-24T11:08:25;6.10;;;1.70;;
5811;SDS011;2932;52.400;9.558;2023-04-24T11:10:54;2.80;;;1.43;;
5811;SDS011;2932;52.400;9.558;2023-04-24T11:13:23;1.90;;;1.40;;
5811;SDS011;2932;52.400;9.558;2023-04-24T11:18:38;1.53;;;1.20;;
5811;SDS011;2932;52.400;9.558;2023-04-24T11:21:13;1.50;;;1.33;;
5811;SDS011;2932;52.400;9.558;2023-04-24T11:23:42;1.83;;;1.10;;
5811;SDS011;2932;52.400;9.558;2023-04-24T11:26:25;1.30;;;1.20;;
5811;SDS011;2932;52.400;9.558;2023-04-24T11:29:05;1.20;;;1.10;;
5811;SDS011;2932;52.400;9.558;2023-04-24T11:31:36;0.87;;;0.87;;
5811;SDS011;2932;52.400;9.558;2023-04-24T11:34:09;1.50;;;1.40;;
5811;SDS011;2932;52.400;9.558;2023-04-24T11:36:36;1.20;;;1.10;;
5811;SDS011;2932;52.400;9.558;2023-04-24T11:39:01;1.23;;;1.13;;
5811;SDS011;2932;52.400;9.558;2023-04-24T11:41:27;1.13;;;1.00;;
5811;SDS011;2932;52.400;9.558;2023-04-24T11:43:53;1.33;;;1.23;;
5811;SDS011;2932;52.400;9.558;2023-04-24T11:46:20;1.20;;;1.00;;
5811;SDS011;2932;52.400;9.558;2023-04-24T11:48:46;0.83;;;0.77;;
5811;SDS011;2932;52.400;9.558;2023-04-24T11:51:12;0.90;;;0.90;;
5811;SDS011;2932;52.400;9.558;2023-04-24T11:53:38;0.70;;;0.70;;
5811;SDS011;2932;52.400;9.558;2023-04-24T11:56:03;0.80;;;0.80;;
5811;SDS011;2932;52.400;9.558;2023-04-24T11:58:34;0.97;;;0.93;;
5811;SDS011;2932;52.400;9.558;2023-04-24T12:01:05;0.97;;;0.90;;
5811;SDS011;2932;52.400;9.558;2023-04-24T12:03:31;1.03;;;0.73;;
5811;SDS011;2932;52.400;9.558;2023-04-24T12:06:14;0.83;;;0.83;;
5811;SDS011;2932;52.400;9.558;2023-04-24T12:08:39;0.60;;;0.60;;
5811;SDS011;2932;52.400;9.558;2023-04-24T12:11:06;1.03;;;0.93;;
5811;SDS011;2932;52.400;9.558;2023-04-24T12:13:32;0.97;;;0.90;;
5811;SDS011;2932;52.400;9.558;2023-04-24T12:15:59;0.67;;;0.67;;
5811;SDS011;2932;52.400;9.558;2023-04-24T12:18:26;0.70;;;0.70;;
5811;SDS011;2932;52.400;9.558;2023-04-24T12:20:51;1.13;;;0.77;;
5811;SDS011;2932;52.400;9.558;2023-04-24T12:23:32;0.83;;;0.83;;
5811;SDS011;2932;52.400;9.558;2023-04-24T12:25:59;1.07;;;0.70;;
5811;SDS011;2932;52.400;9.558;2023-04-24T12:28:34;0.77;;;0.77;;
5811;SDS011;2932;52.400;9.558;2023-04-24T12:31:00;1.00;;;1.00;;
5811;SDS011;2932;52.400;9.558;2023-04-24T12:33:26;3.67;;;1.00;;
5811;SDS011;2932;52.400;9.558;2023-04-24T12:35:52;2.33;;;1.00;;
5811;SDS011;2932;52.400;9.558;2023-04-24T12:38:23;1.10;;;1.00;;
5811;SDS011;2932;52.400;9.558;2023-04-24T12:41:03;1.17;;;1.07;;
5811;SDS011;2932;52.400;9.558;2023-04-24T12:43:30;0.90;;;0.90;;
5811;SDS011;2932;52.400;9.558;2023-04-24T12:45:56;2.23;;;0.90;;
5811;SDS011;2932;52.400;9.558;2023-04-24T12:48:22;0.80;;;0.80;;
5811;SDS011;2932;52.400;9.558;2023-04-24T12:50:47;1.33;;;1.13;;
5811;SDS011;2932;52.400;9.558;2023-04-24T12:53:13;1.00;;;1.00;;
5811;SDS011;2932;52.400;9.558;2023-04-24T12:55:40;1.40;;;1.30;;
5811;SDS011;2932;52.400;9.558;2023-04-24T12:58:05;0.80;;;0.80;;
5811;SDS011;2932;52.400;9.558;2023-04-24T13:00:30;1.40;;;1.30;;
5811;SDS011;2932;52.400;9.558;2023-04-24T13:02:57;1.10;;;1.10;;
5811;SDS011;2932;52.400;9.558;2023-04-24T13:05:22;1.50;;;1.37;;
5811;SDS011;2932;52.400;9.558;2023-04-24T13:07:48;1.50;;;1.40;;
5811;SDS011;2932;52.400;9.558;2023-04-24T13:10:13;1.60;;;1.50;;
5811;SDS011;2932;52.400;9.558;2023-04-24T13:12:39;1.70;;;1.60;;
5811;SDS011;2932;52.400;9.558;2023-04-24T13:15:05;3.10;;;1.57;;
5811;SDS011;2932;52.400;9.558;2023-04-24T13:17:31;2.27;;;1.80;;
5811;SDS011;2932;52.400;9.558;2023-04-24T13:19:57;1.70;;;1.60;;
5811;SDS011;2932;52.400;9.558;2023-04-24T13:22:22;1.73;;;1.63;;
5811;SDS011;2932;52.400;9.558;2023-04-24T13:24:47;1.80;;;1.50;;
5811;SDS011;2932;52.400;9.558;2023-04-24T13:27:14;1.70;;;1.60;;
5811;SDS011;2932;52.400;9.558;2023-04-24T13:29:40;1.10;;;1.07;;
5811;SDS011;2932;52.400;9.558;2023-04-24T13:32:05;0.90;;;0.90;;
5811;SDS011;2932;52.400;9.558;2023-04-24T13:34:30;0.90;;;0.90;;
5811;SDS011;2932;52.400;9.558;2023-04-24T13:36:56;0.73;;;0.73;;
5811;SDS011;2932;52.400;9.558;2023-04-24T13:39:23;0.63;;;0.63;;
5811;SDS011;2932;52.400;9.558;2023-04-24T13:41:49;0.50;;;0.50;;
5811;SDS011;2932;52.400;9.558;2023-04-24T13:44:18;0.73;;;0.73;;
5811;SDS011;2932;52.400;9.558;2023-04-24T13:46:45;0.50;;;0.43;;
5811;SDS011;2932;52.400;9.558;2023-04-24T13:49:11;0.40;;;0.40;;
5811;SDS011;2932;52.400;9.558;2023-04-24T13:51:37;0.50;;;0.50;;
5811;SDS011;2932;52.400;9.558;2023-04-24T13:54:03;0.50;;;0.50;;
5811;SDS011;2932;52.400;9.558;2023-04-24T13:56:28;0.60;;;0.50;;
5811;SDS011;2932;52.400;9.558;2023-04-24T13:58:54;0.60;;;0.60;;
5811;SDS011;2932;52.400;9.558;2023-04-24T14:01:19;2.17;;;0.60;;
5811;SDS011;2932;52.400;9.558;2023-04-24T14:03:49;1.83;;;0.50;;
5811;SDS011;2932;52.400;9.558;2023-04-24T14:06:14;1.17;;;0.80;;
5811;SDS011;2932;52.400;9.558;2023-04-24T14:08:40;2.03;;;0.90;;
5811;SDS011;2932;52.400;9.558;2023-04-24T14:11:05;1.67;;;1.10;;
5811;SDS011;2932;52.400;9.558;2023-04-24T14:13:31;1.03;;;0.97;;
5811;SDS011;2932;52.400;9.558;2023-04-24T14:15:56;2.00;;;1.40;;
5811;SDS011;2932;52.400;9.558;2023-04-24T14:18:22;2.00;;;1.53;;
5811;SDS011;2932;52.400;9.558;2023-04-24T14:20:48;2.03;;;1.43;;
5811;SDS011;2932;52.400;9.558;2023-04-24T14:23:13;2.13;;;1.60;;
5811;SDS011;2932;52.400;9.558;2023-04-24T14:25:38;2.17;;;1.60;;
5811;SDS011;2932;52.400;9.558;2023-04-24T14:28:05;2.20;;;2.00;;
5811;SDS011;2932;52.400;9.558;2023-04-24T14:30:30;3.43;;;1.33;;
5811;SDS011;2932;52.400;9.558;2023-04-24T14:32:56;1.90;;;1.60;;
5811;SDS011;2932;52.400;9.558;2023-04-24T14:35:21;2.10;;;1.87;;
5811;SDS011;2932;52.400;9.558;2023-04-24T14:37:46;5.57;;;1.87;;
5811;SDS011;2932;52.400;9.558;2023-04-24T14:40:13;4.03;;;1.37;;
5811;SDS011;2932;52.400;9.558;2023-04-24T14:42:38;2.67;;;2.00;;
5811;SDS011;2932;52.400;9.558;2023-04-24T14:45:04;5.80;;;1.77;;
5811;SDS011;2932;52.400;9.558;2023-04-24T14:47:29;3.37;;;1.87;;
5811;SDS011;2932;52.400;9.558;2023-04-24T14:49:55;3.60;;;2.47;;
5811;SDS011;2932;52.400;9.558;2023-04-24T14:52:20;3.70;;;2.10;;
5811;SDS011;2932;52.400;9.558;2023-04-24T14:54:46;5.90;;;2.10;;
5811;SDS011;2932;52.400;9.558;2023-04-24T14:57:11;4.33;;;2.33;;
5811;SDS011;2932;52.400;9.558;2023-04-24T14:59:36;6.63;;;1.73;;
5811;SDS011;2932;52.400;9.558;2023-04-24T15:02:02;2.10;;;1.90;;
5811;SDS011;2932;52.400;9.558;2023-04-24T15:04:27;4.20;;;2.33;;
5811;SDS011;2932;52.400;9.558;2023-04-24T15:06:54;4.57;;;2.30;;
5811;SDS011;2932;52.400;9.558;2023-04-24T15:09:20;4.80;;;2.47;;
5811;SDS011;2932;52.400;9.558;2023-04-24T15:11:46;4.40;;;2.33;;
5811;SDS011;2932;52.400;9.558;2023-04-24T15:14:12;3.43;;;1.97;;
5811;SDS011;2932;52.400;9.558;2023-04-24T15:16:38;4.57;;;2.30;;